British Cygnet — MGSG6 — position and weather

sailwx.info

Track history (hours):
 
Tides and Currents Weather Stations Pressure Air Temp Water Temp Dewpoint Dewpoint Depression Visibility Wind Speed Wind Dir Waves Ship Positions

British Cygnet

Last reported at 2018-Feb-19 00:00 UTC. Time now 2018-Feb-19 00:16 UTC.
Position N 51°59' E 003°59'.

Length 251.5 m; beam 43.8 m; draft 15 m.

Type: Tanker. MMSI: 232157000.

Date/timePositionNaut miles runAvg speedWind from/ knotsBaromVisibWave heightAir tempDewpointWater temp
2018-Feb-19 00:00N 51°59' E 003°59'0 0.0
2018-Feb-18 23:30N 51°59' E 003°59'0 0.0
2018-Feb-18 23:00N 51°59' E 003°59'0 0.0
2018-Feb-18 22:30N 51°59' E 003°59'0 0.0
2018-Feb-18 22:00N 51°59' E 003°59'0 0.0
2018-Feb-18 21:30N 51°59' E 003°59'0 0.0
2018-Feb-18 21:00N 51°59' E 003°59'0 0.0
2018-Feb-18 20:30N 51°59' E 003°59'0 0.0
2018-Feb-18 20:00N 51°59' E 003°59'0 0.0
2018-Feb-18 19:30N 51°59' E 003°59'0 0.0
2018-Feb-18 19:00N 51°59' E 003°59'0 0.0
2018-Feb-18 18:30N 51°59' E 003°59'0 0.0
2018-Feb-18 18:00N 51°59' E 003°59'0 0.0
2018-Feb-18 17:30N 51°59' E 003°59'0 0.0
2018-Feb-18 17:00N 51°59' E 003°59'0 0.0
2018-Feb-18 16:30N 51°59' E 003°59'0 0.0
2018-Feb-18 16:00N 51°59' E 003°59'0 0.0
2018-Feb-18 15:30N 51°59' E 003°59'0 0.0
2018-Feb-18 15:00N 51°59' E 003°59'0 0.0
2018-Feb-18 14:30N 51°59' E 003°59'0 0.0
2018-Feb-18 14:00N 51°59' E 003°59'0 0.0
2018-Feb-18 13:30N 51°59' E 003°59'0 0.0
2018-Feb-18 13:00N 51°59' E 003°59'0 0.0
2018-Feb-18 12:30N 51°59' E 003°59'0 0.0
2018-Feb-18 12:00N 51°59' E 003°59'0 0.0
2018-Feb-18 11:30N 51°59' E 003°59'0 0.0
2018-Feb-18 11:00N 51°59' E 003°59'0 0.0
2018-Feb-18 10:30N 51°59' E 003°59'0 0.0
2018-Feb-18 10:00N 51°59' E 003°59'0 0.0
2018-Feb-18 09:30N 51°59' E 003°59'0 0.0
2018-Feb-18 09:00N 51°59' E 003°59'0 0.0
2018-Feb-18 08:30N 51°59' E 003°59'0 0.0
2018-Feb-18 08:00N 51°59' E 003°59'0 0.0
2018-Feb-18 07:30N 51°59' E 003°59'0 0.0
2018-Feb-18 07:00N 51°59' E 003°59'0 0.0
2018-Feb-18 06:30N 51°59' E 003°59'0 0.0
2018-Feb-18 06:00N 51°59' E 003°59'0 0.0
2018-Feb-18 05:30N 51°59' E 003°59'0 0.0
2018-Feb-18 05:00N 51°59' E 003°59'0 0.0
2018-Feb-18 04:30N 51°59' E 003°59'0 0.0
2018-Feb-18 04:00N 51°59' E 003°59'0 0.0
2018-Feb-18 03:30N 51°59' E 003°59'0 0.0
2018-Feb-18 03:00N 51°59' E 003°59'0 0.0
2018-Feb-18 02:30N 51°59' E 003°59'0 0.0
2018-Feb-18 02:00N 51°59' E 003°59'0 0.4
2018-Feb-18 01:30N 51°59' E 003°60'2 3.0
2018-Feb-18 01:00N 51°58' E 004°02'2 3.8
2018-Feb-18 00:30N 51°58' E 004°05'4 7.5
2018-Feb-18 00:00N 52°00' E 003°60'5 9.0
2018-Feb-17 23:30N 51°60' E 003°52'4 8.6
2018-Feb-17 23:00N 51°60' E 003°45'3 6.6
2018-Feb-17 22:30N 52°01' E 003°41'3 5.6
2018-Feb-17 22:00N 52°03' E 003°38'2 4.9
2018-Feb-17 21:30N 52°05' E 003°36'3 5.1
2018-Feb-17 20:56N 52°07' E 003°32'4 8.6
2018-Feb-17 20:29N 52°09' E 003°26'612.0
2018-Feb-17 19:59N 52°12' E 003°18'11111.1
2018-Feb-17 10:00N 53°58' E 004°13'712.9
2018-Feb-17 09:29N 54°02' E 004°22'712.8
2018-Feb-17 08:56N 54°07' E 004°31'712.9
2018-Feb-17 08:22N 54°13' E 004°37'512.8
2018-Feb-17 08:00N 54°17' E 004°42'712.9
2018-Feb-17 07:29N 54°23' E 004°48'27812.1
2018-Feb-16 08:35N 57°50' E 010°20'313.5
2018-Feb-16 08:23N 57°50' E 010°25'812.9
2018-Feb-16 07:47N 57°50' E 010°40'412.3
2018-Feb-16 07:30N 57°48' E 010°45'611.3
2018-Feb-16 07:00N 57°44' E 010°53'511.0
2018-Feb-16 06:30N 57°41' E 011°01'510.8
2018-Feb-16 06:00N 57°37' E 011°08'510.7
2018-Feb-16 05:31N 57°33' E 011°15'510.4
2018-Feb-16 05:00N 57°30' E 011°22'611.2
2018-Feb-16 04:30N 57°25' E 011°27'611.2
2018-Feb-16 04:00N 57°19' E 011°31'510.6
2018-Feb-16 03:30N 57°15' E 011°34'510.5
2018-Feb-16 03:01N 57°10' E 011°38'510.4
2018-Feb-16 02:30N 57°05' E 011°41'510.9
2018-Feb-16 02:00N 56°60' E 011°44'10910.9
2018-Feb-15 16:00N 55°13' E 011°06'612.4
2018-Feb-15 15:30N 55°08' E 010°59'613.3
2018-Feb-15 15:00N 55°01' E 010°60'713.5
2018-Feb-15 14:31N 54°56' E 010°53'714.0
2018-Feb-15 14:01N 54°49' E 010°50'713.4
2018-Feb-15 13:30N 54°42' E 010°47'612.5
2018-Feb-15 13:00N 54°38' E 010°54'612.6
2018-Feb-15 12:30N 54°37' E 011°05'713.4
2018-Feb-15 12:00N 54°34' E 011°16'713.6
2018-Feb-15 11:30N 54°31' E 011°26'713.1
2018-Feb-15 11:00N 54°29' E 011°37'712.7
2018-Feb-15 10:30N 54°26' E 011°47'813.2
2018-Feb-15 09:53N 54°26' E 012°01'411.1
2018-Feb-15 09:30N 54°26' E 012°08'4 8.9
2018-Feb-15 09:00N 54°30' E 012°13'7211.6
2018-Feb-15 02:44N 55°04' E 014°03'313.5
2018-Feb-15 02:30N 55°06' E 014°08'713.4
2018-Feb-15 01:58N 55°09' E 014°19'613.4
2018-Feb-15 01:31N 55°12' E 014°29'713.3
2018-Feb-15 01:00N 55°17' E 014°37'712.1
2018-Feb-15 00:28N 55°20' E 014°47'3 7.2
2018-Feb-15 00:00N 55°21' E 014°53'510.4
2018-Feb-14 23:30N 55°24' E 015°01'612.9
2018-Feb-14 23:01N 55°26' E 015°11'713.0
2018-Feb-14 22:30N 55°29' E 015°22'613.0
2018-Feb-14 22:00N 55°32' E 015°32'612.9
2018-Feb-14 21:30N 55°35' E 015°42'612.8
2018-Feb-14 21:00N 55°38' E 015°52'612.9
2018-Feb-14 20:30N 55°41' E 016°02'612.9
2018-Feb-14 20:00N 55°44' E 016°12'713.0
2018-Feb-14 19:30N 55°45' E 016°24'612.9
2018-Feb-14 19:00N 55°47' E 016°35'30412.5
2018-Feb-13 18:44N 59°34' E 022°54'312.9
2018-Feb-13 18:29N 59°35' E 022°60'612.7
2018-Feb-13 18:00N 59°36' E 023°11'713.1
2018-Feb-13 17:30N 59°38' E 023°24'612.8
2018-Feb-13 17:01N 59°40' E 023°36'612.4
2018-Feb-13 16:30N 59°42' E 023°48'612.0
2018-Feb-13 16:01N 59°43' E 023°59'713.0
2018-Feb-13 15:29N 59°45' E 024°12'613.1
2018-Feb-13 15:00N 59°47' E 024°24'613.1
2018-Feb-13 14:30N 59°48' E 024°37'613.0
2018-Feb-13 14:01N 59°50' E 024°49'713.0
2018-Feb-13 13:30N 59°51' E 025°02'612.7
2018-Feb-13 13:00N 59°52' E 025°14'612.8
2018-Feb-13 12:30N 59°53' E 025°27'713.1
2018-Feb-13 12:00N 59°54' E 025°40'1713.5
2018-Feb-13 10:46N 59°58' E 026°12'312.3
2018-Feb-13 10:30N 59°59' E 026°18'612.1
2018-Feb-13 10:01N 60°01' E 026°30'611.8
2018-Feb-13 09:30N 60°01' E 026°42'612.9
2018-Feb-13 09:00N 59°60' E 026°55'612.1
2018-Feb-13 08:29N 60°00' E 027°07'613.2
2018-Feb-13 08:00N 60°04' E 027°18'511.0
2018-Feb-13 07:30N 60°07' E 027°27'5 9.3
2018-Feb-13 07:00N 60°09' E 027°35'4 8.9
2018-Feb-13 06:30N 60°12' E 027°43'4 8.2
2018-Feb-13 06:01N 60°11' E 027°51'5 9.9
2018-Feb-13 05:30N 60°10' E 028°01'4 9.0
2018-Feb-13 05:00N 60°09' E 028°09'611.2
2018-Feb-13 04:31N 60°07' E 028°19'612.5
2018-Feb-13 04:00N 60°04' E 028°30'5 9.7
2018-Feb-13 03:29N 59°59' E 028°36'4 8.8
2018-Feb-13 03:01N 59°55' E 028°33'510.7
2018-Feb-13 02:30N 59°51' E 028°27'611.4
2018-Feb-13 02:01N 59°46' E 028°24'3 6.7
2018-Feb-13 01:30N 59°42' E 028°25'0 0.3
2018-Feb-13 00:56N 59°42' E 028°26'0 0.0
2018-Feb-13 00:26N 59°42' E 028°26'0 0.0
2018-Feb-12 23:56N 59°42' E 028°26'0 0.0
2018-Feb-12 23:29N 59°42' E 028°26'0 0.0
2018-Feb-12 22:59N 59°42' E 028°26'0 0.0
2018-Feb-12 22:29N 59°42' E 028°26'0 0.0
2018-Feb-12 21:59N 59°42' E 028°26'0 0.0
2018-Feb-12 21:29N 59°42' E 028°26'0 0.0
2018-Feb-12 20:59N 59°42' E 028°26'0 0.0
2018-Feb-12 20:29N 59°42' E 028°26'0 0.0
2018-Feb-12 19:56N 59°42' E 028°26'0 0.0
2018-Feb-12 19:29N 59°42' E 028°26'0 0.0
2018-Feb-12 18:59N 59°42' E 028°26'0 0.0
2018-Feb-12 18:29N 59°42' E 028°26'0 0.0
2018-Feb-12 17:59N 59°42' E 028°26'0 0.0
2018-Feb-12 17:29N 59°42' E 028°26'0 0.0
2018-Feb-12 16:59N 59°42' E 028°26'0 0.0
2018-Feb-12 16:26N 59°42' E 028°26'0 0.0
2018-Feb-12 15:59N 59°42' E 028°26'0 0.0
2018-Feb-12 15:17N 59°42' E 028°26'0 0.0
2018-Feb-12 14:59N 59°42' E 028°26'0 0.0
2018-Feb-12 14:29N 59°42' E 028°26'0 0.0
2018-Feb-12 13:59N 59°42' E 028°26'0 0.0
2018-Feb-12 13:29N 59°42' E 028°26'0 0.0
2018-Feb-12 12:59N 59°42' E 028°26'0 0.0
2018-Feb-12 12:29N 59°42' E 028°26'0 0.0
2018-Feb-12 11:59N 59°42' E 028°26'0 0.0
2018-Feb-12 11:29N 59°42' E 028°26'0 0.0
2018-Feb-12 10:59N 59°42' E 028°26'0 0.0
2018-Feb-12 10:29N 59°42' E 028°26'0 0.0
2018-Feb-12 09:59N 59°42' E 028°26'0 0.0
2018-Feb-12 09:29N 59°42' E 028°26'0 0.0
2018-Feb-12 08:50N 59°42' E 028°26'0 0.0
2018-Feb-12 08:05N 59°42' E 028°26'0 0.0
2018-Feb-12 07:50N 59°42' E 028°26'0 0.0
2018-Feb-12 07:20N 59°42' E 028°26'0 0.0
2018-Feb-12 06:50N 59°42' E 028°26'0 0.0
2018-Feb-12 06:08N 59°42' E 028°26'0 0.0
2018-Feb-12 05:53N 59°42' E 028°26'0 0.0
2018-Feb-12 05:23N 59°42' E 028°26'0 0.0
2018-Feb-12 04:53N 59°42' E 028°26'0 0.0
2018-Feb-12 04:23N 59°42' E 028°26'0 0.0
2018-Feb-12 03:53N 59°42' E 028°26'0 0.0
2018-Feb-12 03:22N 59°42' E 028°26'0 0.0
2018-Feb-12 02:52N 59°42' E 028°26'0 0.0
2018-Feb-12 02:22N 59°42' E 028°26'0 0.0
2018-Feb-12 02:00N 59°42' E 028°26'0 0.9
2018-Feb-12 01:30N 59°43' E 028°26'0 0.1
2018-Feb-12 00:52N 59°43' E 028°26'0 0.0
2018-Feb-12 00:19N 59°43' E 028°26'0 0.0
2018-Feb-11 23:55N 59°43' E 028°26'0 0.0
2018-Feb-11 23:25N 59°43' E 028°26'0 0.0
2018-Feb-11 22:55N 59°43' E 028°26'0 0.0
2018-Feb-11 22:25N 59°43' E 028°26'0 0.0
2018-Feb-11 21:55N 59°43' E 028°26'0 0.0
2018-Feb-11 21:25N 59°43' E 028°26'0 0.0
2018-Feb-11 20:55N 59°43' E 028°26'0 0.0
2018-Feb-11 20:25N 59°43' E 028°26'0 0.0
2018-Feb-11 19:55N 59°43' E 028°26'0 0.0
2018-Feb-11 19:25N 59°43' E 028°26'0 0.0
2018-Feb-11 18:55N 59°43' E 028°26'0 0.0
2018-Feb-11 18:25N 59°43' E 028°26'0 0.0
2018-Feb-11 17:58N 59°43' E 028°26'0 0.0
2018-Feb-11 17:28N 59°43' E 028°26'0 0.0
2018-Feb-11 16:58N 59°43' E 028°26'0 0.0
2018-Feb-11 16:28N 59°43' E 028°26'0 0.0
2018-Feb-11 15:58N 59°43' E 028°26'0 0.0
2018-Feb-11 15:28N 59°43' E 028°26'0 0.0
2018-Feb-11 14:58N 59°43' E 028°26'0 0.0
2018-Feb-11 14:28N 59°43' E 028°26'0 0.0
2018-Feb-11 13:58N 59°43' E 028°26'0 0.0
2018-Feb-11 13:28N 59°43' E 028°26'0 0.0
2018-Feb-11 12:58N 59°43' E 028°26'0 0.0
2018-Feb-11 12:28N 59°43' E 028°26'0 0.0
2018-Feb-11 11:58N 59°43' E 028°26'0 0.0
2018-Feb-11 11:28N 59°43' E 028°26'0 0.0
2018-Feb-11 10:58N 59°43' E 028°26'0 0.0
2018-Feb-11 10:28N 59°43' E 028°26'0 0.0
2018-Feb-11 09:58N 59°43' E 028°26'0 0.0
2018-Feb-11 09:28N 59°43' E 028°26'0 0.0
2018-Feb-11 08:58N 59°43' E 028°26'0 0.0
2018-Feb-11 08:28N 59°43' E 028°26'0 0.0
2018-Feb-11 07:58N 59°43' E 028°26'0 0.0
2018-Feb-11 07:28N 59°43' E 028°26'0 0.0
2018-Feb-11 06:49N 59°43' E 028°26'0 0.0
2018-Feb-11 06:28N 59°43' E 028°26'0 0.0
2018-Feb-11 05:58N 59°43' E 028°26'0 0.0
2018-Feb-11 05:28N 59°43' E 028°26'0 0.0
2018-Feb-11 04:58N 59°43' E 028°26'0 0.0
2018-Feb-11 04:28N 59°43' E 028°26'0 0.0
2018-Feb-11 03:49N 59°43' E 028°26'0 0.0
2018-Feb-11 03:19N 59°43' E 028°26'0 0.0
2018-Feb-11 02:49N 59°43' E 028°26'0 0.0
2018-Feb-11 02:16N 59°43' E 028°26'0 0.0
2018-Feb-11 01:49N 59°43' E 028°26'0 0.0
2018-Feb-11 01:19N 59°43' E 028°26'0 0.0
2018-Feb-11 00:52N 59°43' E 028°26'0 0.0
2018-Feb-11 00:22N 59°43' E 028°26'0 0.0
2018-Feb-10 23:52N 59°43' E 028°26'0 0.0
2018-Feb-10 23:22N 59°43' E 028°26'0 0.0
2018-Feb-10 23:01N 59°43' E 028°26'0 0.0
2018-Feb-10 22:30N 59°43' E 028°26'0 0.0
2018-Feb-10 21:36N 59°43' E 028°26'0 0.0
2018-Feb-10 21:21N 59°43' E 028°26'0 0.0
2018-Feb-10 20:51N 59°43' E 028°26'0 0.0
2018-Feb-10 20:21N 59°43' E 028°26'0 0.0
2018-Feb-10 19:51N 59°43' E 028°26'0 0.0
2018-Feb-10 19:21N 59°43' E 028°26'0 0.0
2018-Feb-10 18:54N 59°43' E 028°26'0 0.0
2018-Feb-10 18:24N 59°43' E 028°26'0 0.0
2018-Feb-10 17:54N 59°43' E 028°26'0 0.0
2018-Feb-10 17:24N 59°43' E 028°26'0 0.0
2018-Feb-10 16:54N 59°43' E 028°26'0 0.0
2018-Feb-10 16:24N 59°43' E 028°26'0 0.0
2018-Feb-10 15:54N 59°43' E 028°26'0 0.0
2018-Feb-10 15:24N 59°43' E 028°26'0 0.0
2018-Feb-10 14:54N 59°43' E 028°26'0 0.0
2018-Feb-10 14:24N 59°43' E 028°26'0 0.0
2018-Feb-10 13:54N 59°43' E 028°26'0 0.0
2018-Feb-10 13:24N 59°43' E 028°26'0 0.0
2018-Feb-10 12:57N 59°43' E 028°26'0 0.0
2018-Feb-10 12:27N 59°43' E 028°26'0 0.0
2018-Feb-10 11:57N 59°43' E 028°26'0 0.0
2018-Feb-10 11:27N 59°43' E 028°26'0 0.0
2018-Feb-10 10:57N 59°43' E 028°26'0 0.0
2018-Feb-10 10:27N 59°43' E 028°26'0 0.0
2018-Feb-10 09:57N 59°43' E 028°26'0 0.0
2018-Feb-10 09:27N 59°43' E 028°26'0 0.0
2018-Feb-10 08:57N 59°43' E 028°26'0 0.0
2018-Feb-10 08:27N 59°43' E 028°26'0 0.0
2018-Feb-10 08:00N 59°43' E 028°26'0 0.0
2018-Feb-10 07:30N 59°43' E 028°26'0 0.0
2018-Feb-10 07:00N 59°43' E 028°26'0 0.0
2018-Feb-10 06:30N 59°43' E 028°26'0 0.0
2018-Feb-10 06:00N 59°43' E 028°26'0 0.0
2018-Feb-10 05:30N 59°43' E 028°26'0 0.0
2018-Feb-10 05:00N 59°43' E 028°26'0 0.0
2018-Feb-10 04:30N 59°43' E 028°26'0 0.0
2018-Feb-10 04:00N 59°43' E 028°26'0 0.0
2018-Feb-10 03:30N 59°43' E 028°26'0 0.0
2018-Feb-10 03:00N 59°43' E 028°26'0 0.0
2018-Feb-10 02:30N 59°43' E 028°26'0 0.0
2018-Feb-10 02:00N 59°43' E 028°26'0 0.0
2018-Feb-10 01:30N 59°43' E 028°26'0 0.0
2018-Feb-10 01:00N 59°43' E 028°26'0 0.0
2018-Feb-10 00:30N 59°43' E 028°26'0 0.0
2018-Feb-10 00:00N 59°43' E 028°26'0 0.0
2018-Feb-09 23:30N 59°43' E 028°26'0 0.0
2018-Feb-09 23:00N 59°43' E 028°26'0 0.0
2018-Feb-09 22:45N 59°43' E 028°26'0 0.0
2018-Feb-09 10:30N 59°43' E 028°26'1 1.4
2018-Feb-09 10:01N 59°42' E 028°25'1 1.4
2018-Feb-09 09:30N 59°42' E 028°24'15 9.9
2018-Feb-09 08:00N 59°56' E 028°34'2 4.1
2018-Feb-09 07:30N 59°57' E 028°37'  
Track history (hours):
 
Tides and Currents Weather Stations Pressure Air Temp Water Temp Dewpoint Dewpoint Depression Visibility Wind Speed Wind Dir Waves Ship Positions

British Cygnet

Last reported at 2018-Feb-19 00:00 UTC. Time now 2018-Feb-19 00:16 UTC.
Position N 51°59' E 003°59'.

Length 251.5 m; beam 43.8 m; draft 15 m.

Type: Tanker. MMSI: 232157000.

Date/timePositionNaut miles runAvg speedWind from/ knotsBaromVisibWave heightAir tempDewpointWater temp
2018-Feb-19 00:00N 51°59' E 003°59'0 0.0
2018-Feb-18 23:30N 51°59' E 003°59'0 0.0
2018-Feb-18 23:00N 51°59' E 003°59'0 0.0
2018-Feb-18 22:30N 51°59' E 003°59'0 0.0
2018-Feb-18 22:00N 51°59' E 003°59'0 0.0
2018-Feb-18 21:30N 51°59' E 003°59'0 0.0
2018-Feb-18 21:00N 51°59' E 003°59'0 0.0
2018-Feb-18 20:30N 51°59' E 003°59'0 0.0
2018-Feb-18 20:00N 51°59' E 003°59'0 0.0
2018-Feb-18 19:30N 51°59' E 003°59'0 0.0
2018-Feb-18 19:00N 51°59' E 003°59'0 0.0
2018-Feb-18 18:30N 51°59' E 003°59'0 0.0
2018-Feb-18 18:00N 51°59' E 003°59'0 0.0
2018-Feb-18 17:30N 51°59' E 003°59'0 0.0
2018-Feb-18 17:00N 51°59' E 003°59'0 0.0
2018-Feb-18 16:30N 51°59' E 003°59'0 0.0
2018-Feb-18 16:00N 51°59' E 003°59'0 0.0
2018-Feb-18 15:30N 51°59' E 003°59'0 0.0
2018-Feb-18 15:00N 51°59' E 003°59'0 0.0
2018-Feb-18 14:30N 51°59' E 003°59'0 0.0
2018-Feb-18 14:00N 51°59' E 003°59'0 0.0
2018-Feb-18 13:30N 51°59' E 003°59'0 0.0
2018-Feb-18 13:00N 51°59' E 003°59'0 0.0
2018-Feb-18 12:30N 51°59' E 003°59'0 0.0
2018-Feb-18 12:00N 51°59' E 003°59'0 0.0
2018-Feb-18 11:30N 51°59' E 003°59'0 0.0
2018-Feb-18 11:00N 51°59' E 003°59'0 0.0
2018-Feb-18 10:30N 51°59' E 003°59'0 0.0
2018-Feb-18 10:00N 51°59' E 003°59'0 0.0
2018-Feb-18 09:30N 51°59' E 003°59'0 0.0
2018-Feb-18 09:00N 51°59' E 003°59'0 0.0
2018-Feb-18 08:30N 51°59' E 003°59'0 0.0
2018-Feb-18 08:00N 51°59' E 003°59'0 0.0
2018-Feb-18 07:30N 51°59' E 003°59'0 0.0
2018-Feb-18 07:00N 51°59' E 003°59'0 0.0
2018-Feb-18 06:30N 51°59' E 003°59'0 0.0
2018-Feb-18 06:00N 51°59' E 003°59'0 0.0
2018-Feb-18 05:30N 51°59' E 003°59'0 0.0
2018-Feb-18 05:00N 51°59' E 003°59'0 0.0
2018-Feb-18 04:30N 51°59' E 003°59'0 0.0
2018-Feb-18 04:00N 51°59' E 003°59'0 0.0
2018-Feb-18 03:30N 51°59' E 003°59'0 0.0
2018-Feb-18 03:00N 51°59' E 003°59'0 0.0
2018-Feb-18 02:30N 51°59' E 003°59'0 0.0
2018-Feb-18 02:00N 51°59' E 003°59'0 0.4
2018-Feb-18 01:30N 51°59' E 003°60'2 3.0
2018-Feb-18 01:00N 51°58' E 004°02'2 3.8
2018-Feb-18 00:30N 51°58' E 004°05'4 7.5
2018-Feb-18 00:00N 52°00' E 003°60'5 9.0
2018-Feb-17 23:30N 51°60' E 003°52'4 8.6
2018-Feb-17 23:00N 51°60' E 003°45'3 6.6
2018-Feb-17 22:30N 52°01' E 003°41'3 5.6
2018-Feb-17 22:00N 52°03' E 003°38'2 4.9
2018-Feb-17 21:30N 52°05' E 003°36'3 5.1
2018-Feb-17 20:56N 52°07' E 003°32'4 8.6
2018-Feb-17 20:29N 52°09' E 003°26'612.0
2018-Feb-17 19:59N 52°12' E 003°18'11111.1
2018-Feb-17 10:00N 53°58' E 004°13'712.9
2018-Feb-17 09:29N 54°02' E 004°22'712.8
2018-Feb-17 08:56N 54°07' E 004°31'712.9
2018-Feb-17 08:22N 54°13' E 004°37'512.8
2018-Feb-17 08:00N 54°17' E 004°42'712.9
2018-Feb-17 07:29N 54°23' E 004°48'27812.1
2018-Feb-16 08:35N 57°50' E 010°20'313.5
2018-Feb-16 08:23N 57°50' E 010°25'812.9
2018-Feb-16 07:47N 57°50' E 010°40'412.3
2018-Feb-16 07:30N 57°48' E 010°45'611.3
2018-Feb-16 07:00N 57°44' E 010°53'511.0
2018-Feb-16 06:30N 57°41' E 011°01'510.8
2018-Feb-16 06:00N 57°37' E 011°08'510.7
2018-Feb-16 05:31N 57°33' E 011°15'510.4
2018-Feb-16 05:00N 57°30' E 011°22'611.2
2018-Feb-16 04:30N 57°25' E 011°27'611.2
2018-Feb-16 04:00N 57°19' E 011°31'510.6
2018-Feb-16 03:30N 57°15' E 011°34'510.5
2018-Feb-16 03:01N 57°10' E 011°38'510.4
2018-Feb-16 02:30N 57°05' E 011°41'510.9
2018-Feb-16 02:00N 56°60' E 011°44'10910.9
2018-Feb-15 16:00N 55°13' E 011°06'612.4
2018-Feb-15 15:30N 55°08' E 010°59'613.3
2018-Feb-15 15:00N 55°01' E 010°60'713.5
2018-Feb-15 14:31N 54°56' E 010°53'714.0
2018-Feb-15 14:01N 54°49' E 010°50'713.4
2018-Feb-15 13:30N 54°42' E 010°47'612.5
2018-Feb-15 13:00N 54°38' E 010°54'612.6
2018-Feb-15 12:30N 54°37' E 011°05'713.4
2018-Feb-15 12:00N 54°34' E 011°16'713.6
2018-Feb-15 11:30N 54°31' E 011°26'713.1
2018-Feb-15 11:00N 54°29' E 011°37'712.7
2018-Feb-15 10:30N 54°26' E 011°47'813.2
2018-Feb-15 09:53N 54°26' E 012°01'411.1
2018-Feb-15 09:30N 54°26' E 012°08'4 8.9
2018-Feb-15 09:00N 54°30' E 012°13'7211.6
2018-Feb-15 02:44N 55°04' E 014°03'313.5
2018-Feb-15 02:30N 55°06' E 014°08'713.4
2018-Feb-15 01:58N 55°09' E 014°19'613.4
2018-Feb-15 01:31N 55°12' E 014°29'713.3
2018-Feb-15 01:00N 55°17' E 014°37'712.1
2018-Feb-15 00:28N 55°20' E 014°47'3 7.2
2018-Feb-15 00:00N 55°21' E 014°53'510.4
2018-Feb-14 23:30N 55°24' E 015°01'612.9
2018-Feb-14 23:01N 55°26' E 015°11'713.0
2018-Feb-14 22:30N 55°29' E 015°22'613.0
2018-Feb-14 22:00N 55°32' E 015°32'612.9
2018-Feb-14 21:30N 55°35' E 015°42'612.8
2018-Feb-14 21:00N 55°38' E 015°52'612.9
2018-Feb-14 20:30N 55°41' E 016°02'612.9
2018-Feb-14 20:00N 55°44' E 016°12'713.0
2018-Feb-14 19:30N 55°45' E 016°24'612.9
2018-Feb-14 19:00N 55°47' E 016°35'30412.5
2018-Feb-13 18:44N 59°34' E 022°54'312.9
2018-Feb-13 18:29N 59°35' E 022°60'612.7
2018-Feb-13 18:00N 59°36' E 023°11'713.1
2018-Feb-13 17:30N 59°38' E 023°24'612.8
2018-Feb-13 17:01N 59°40' E 023°36'612.4
2018-Feb-13 16:30N 59°42' E 023°48'612.0
2018-Feb-13 16:01N 59°43' E 023°59'713.0
2018-Feb-13 15:29N 59°45' E 024°12'613.1
2018-Feb-13 15:00N 59°47' E 024°24'613.1
2018-Feb-13 14:30N 59°48' E 024°37'613.0
2018-Feb-13 14:01N 59°50' E 024°49'713.0
2018-Feb-13 13:30N 59°51' E 025°02'612.7
2018-Feb-13 13:00N 59°52' E 025°14'612.8
2018-Feb-13 12:30N 59°53' E 025°27'713.1
2018-Feb-13 12:00N 59°54' E 025°40'1713.5
2018-Feb-13 10:46N 59°58' E 026°12'312.3
2018-Feb-13 10:30N 59°59' E 026°18'612.1
2018-Feb-13 10:01N 60°01' E 026°30'611.8
2018-Feb-13 09:30N 60°01' E 026°42'612.9
2018-Feb-13 09:00N 59°60' E 026°55'612.1
2018-Feb-13 08:29N 60°00' E 027°07'613.2
2018-Feb-13 08:00N 60°04' E 027°18'511.0
2018-Feb-13 07:30N 60°07' E 027°27'5 9.3
2018-Feb-13 07:00N 60°09' E 027°35'4 8.9
2018-Feb-13 06:30N 60°12' E 027°43'4 8.2
2018-Feb-13 06:01N 60°11' E 027°51'5 9.9
2018-Feb-13 05:30N 60°10' E 028°01'4 9.0
2018-Feb-13 05:00N 60°09' E 028°09'611.2
2018-Feb-13 04:31N 60°07' E 028°19'612.5
2018-Feb-13 04:00N 60°04' E 028°30'5 9.7
2018-Feb-13 03:29N 59°59' E 028°36'4 8.8
2018-Feb-13 03:01N 59°55' E 028°33'510.7
2018-Feb-13 02:30N 59°51' E 028°27'611.4
2018-Feb-13 02:01N 59°46' E 028°24'3 6.7
2018-Feb-13 01:30N 59°42' E 028°25'0 0.3
2018-Feb-13 00:56N 59°42' E 028°26'0 0.0
2018-Feb-13 00:26N 59°42' E 028°26'0 0.0
2018-Feb-12 23:56N 59°42' E 028°26'0 0.0
2018-Feb-12 23:29N 59°42' E 028°26'0 0.0
2018-Feb-12 22:59N 59°42' E 028°26'0 0.0
2018-Feb-12 22:29N 59°42' E 028°26'0 0.0
2018-Feb-12 21:59N 59°42' E 028°26'0 0.0
2018-Feb-12 21:29N 59°42' E 028°26'0 0.0
2018-Feb-12 20:59N 59°42' E 028°26'0 0.0
2018-Feb-12 20:29N 59°42' E 028°26'0 0.0
2018-Feb-12 19:56N 59°42' E 028°26'0 0.0
2018-Feb-12 19:29N 59°42' E 028°26'0 0.0
2018-Feb-12 18:59N 59°42' E 028°26'0 0.0
2018-Feb-12 18:29N 59°42' E 028°26'0 0.0
2018-Feb-12 17:59N 59°42' E 028°26'0 0.0
2018-Feb-12 17:29N 59°42' E 028°26'0 0.0
2018-Feb-12 16:59N 59°42' E 028°26'0 0.0
2018-Feb-12 16:26N 59°42' E 028°26'0 0.0
2018-Feb-12 15:59N 59°42' E 028°26'0 0.0
2018-Feb-12 15:17N 59°42' E 028°26'0 0.0
2018-Feb-12 14:59N 59°42' E 028°26'0 0.0
2018-Feb-12 14:29N 59°42' E 028°26'0 0.0
2018-Feb-12 13:59N 59°42' E 028°26'0 0.0
2018-Feb-12 13:29N 59°42' E 028°26'0 0.0
2018-Feb-12 12:59N 59°42' E 028°26'0 0.0
2018-Feb-12 12:29N 59°42' E 028°26'0 0.0
2018-Feb-12 11:59N 59°42' E 028°26'0 0.0
2018-Feb-12 11:29N 59°42' E 028°26'0 0.0
2018-Feb-12 10:59N 59°42' E 028°26'0 0.0
2018-Feb-12 10:29N 59°42' E 028°26'0 0.0
2018-Feb-12 09:59N 59°42' E 028°26'0 0.0
2018-Feb-12 09:29N 59°42' E 028°26'0 0.0
2018-Feb-12 08:50N 59°42' E 028°26'0 0.0
2018-Feb-12 08:05N 59°42' E 028°26'0 0.0
2018-Feb-12 07:50N 59°42' E 028°26'0 0.0
2018-Feb-12 07:20N 59°42' E 028°26'0 0.0
2018-Feb-12 06:50N 59°42' E 028°26'0 0.0
2018-Feb-12 06:08N 59°42' E 028°26'0 0.0
2018-Feb-12 05:53N 59°42' E 028°26'0 0.0
2018-Feb-12 05:23N 59°42' E 028°26'0 0.0
2018-Feb-12 04:53N 59°42' E 028°26'0 0.0
2018-Feb-12 04:23N 59°42' E 028°26'0 0.0
2018-Feb-12 03:53N 59°42' E 028°26'0 0.0
2018-Feb-12 03:22N 59°42' E 028°26'0 0.0
2018-Feb-12 02:52N 59°42' E 028°26'0 0.0
2018-Feb-12 02:22N 59°42' E 028°26'0 0.0
2018-Feb-12 02:00N 59°42' E 028°26'0 0.9
2018-Feb-12 01:30N 59°43' E 028°26'0 0.1
2018-Feb-12 00:52N 59°43' E 028°26'0 0.0
2018-Feb-12 00:19N 59°43' E 028°26'0 0.0
2018-Feb-11 23:55N 59°43' E 028°26'0 0.0
2018-Feb-11 23:25N 59°43' E 028°26'0 0.0
2018-Feb-11 22:55N 59°43' E 028°26'0 0.0
2018-Feb-11 22:25N 59°43' E 028°26'0 0.0
2018-Feb-11 21:55N 59°43' E 028°26'0 0.0
2018-Feb-11 21:25N 59°43' E 028°26'0 0.0
2018-Feb-11 20:55N 59°43' E 028°26'0 0.0
2018-Feb-11 20:25N 59°43' E 028°26'0 0.0
2018-Feb-11 19:55N 59°43' E 028°26'0 0.0
2018-Feb-11 19:25N 59°43' E 028°26'0 0.0
2018-Feb-11 18:55N 59°43' E 028°26'0 0.0
2018-Feb-11 18:25N 59°43' E 028°26'0 0.0
2018-Feb-11 17:58N 59°43' E 028°26'0 0.0
2018-Feb-11 17:28N 59°43' E 028°26'0 0.0
2018-Feb-11 16:58N 59°43' E 028°26'0 0.0
2018-Feb-11 16:28N 59°43' E 028°26'0 0.0
2018-Feb-11 15:58N 59°43' E 028°26'0 0.0
2018-Feb-11 15:28N 59°43' E 028°26'0 0.0
2018-Feb-11 14:58N 59°43' E 028°26'0 0.0
2018-Feb-11 14:28N 59°43' E 028°26'0 0.0
2018-Feb-11 13:58N 59°43' E 028°26'0 0.0
2018-Feb-11 13:28N 59°43' E 028°26'0 0.0
2018-Feb-11 12:58N 59°43' E 028°26'0 0.0
2018-Feb-11 12:28N 59°43' E 028°26'0 0.0
2018-Feb-11 11:58N 59°43' E 028°26'0 0.0
2018-Feb-11 11:28N 59°43' E 028°26'0 0.0
2018-Feb-11 10:58N 59°43' E 028°26'0 0.0
2018-Feb-11 10:28N 59°43' E 028°26'0 0.0
2018-Feb-11 09:58N 59°43' E 028°26'0 0.0
2018-Feb-11 09:28N 59°43' E 028°26'0 0.0
2018-Feb-11 08:58N 59°43' E 028°26'0 0.0
2018-Feb-11 08:28N 59°43' E 028°26'0 0.0
2018-Feb-11 07:58N 59°43' E 028°26'0 0.0
2018-Feb-11 07:28N 59°43' E 028°26'0 0.0
2018-Feb-11 06:49N 59°43' E 028°26'0 0.0
2018-Feb-11 06:28N 59°43' E 028°26'0 0.0
2018-Feb-11 05:58N 59°43' E 028°26'0 0.0
2018-Feb-11 05:28N 59°43' E 028°26'0 0.0
2018-Feb-11 04:58N 59°43' E 028°26'0 0.0
2018-Feb-11 04:28N 59°43' E 028°26'0 0.0
2018-Feb-11 03:49N 59°43' E 028°26'0 0.0
2018-Feb-11 03:19N 59°43' E 028°26'0 0.0
2018-Feb-11 02:49N 59°43' E 028°26'0 0.0
2018-Feb-11 02:16N 59°43' E 028°26'0 0.0
2018-Feb-11 01:49N 59°43' E 028°26'0 0.0
2018-Feb-11 01:19N 59°43' E 028°26'0 0.0
2018-Feb-11 00:52N 59°43' E 028°26'0 0.0
2018-Feb-11 00:22N 59°43' E 028°26'0 0.0
2018-Feb-10 23:52N 59°43' E 028°26'0 0.0
2018-Feb-10 23:22N 59°43' E 028°26'0 0.0
2018-Feb-10 23:01N 59°43' E 028°26'0 0.0
2018-Feb-10 22:30N 59°43' E 028°26'0 0.0
2018-Feb-10 21:36N 59°43' E 028°26'0 0.0
2018-Feb-10 21:21N 59°43' E 028°26'0 0.0
2018-Feb-10 20:51N 59°43' E 028°26'0 0.0
2018-Feb-10 20:21N 59°43' E 028°26'0 0.0
2018-Feb-10 19:51N 59°43' E 028°26'0 0.0
2018-Feb-10 19:21N 59°43' E 028°26'0 0.0
2018-Feb-10 18:54N 59°43' E 028°26'0 0.0
2018-Feb-10 18:24N 59°43' E 028°26'0 0.0
2018-Feb-10 17:54N 59°43' E 028°26'0 0.0
2018-Feb-10 17:24N 59°43' E 028°26'0 0.0
2018-Feb-10 16:54N 59°43' E 028°26'0 0.0
2018-Feb-10 16:24N 59°43' E 028°26'0 0.0
2018-Feb-10 15:54N 59°43' E 028°26'0 0.0
2018-Feb-10 15:24N 59°43' E 028°26'0 0.0
2018-Feb-10 14:54N 59°43' E 028°26'0 0.0
2018-Feb-10 14:24N 59°43' E 028°26'0 0.0
2018-Feb-10 13:54N 59°43' E 028°26'0 0.0
2018-Feb-10 13:24N 59°43' E 028°26'0 0.0
2018-Feb-10 12:57N 59°43' E 028°26'0 0.0
2018-Feb-10 12:27N 59°43' E 028°26'0 0.0
2018-Feb-10 11:57N 59°43' E 028°26'0 0.0
2018-Feb-10 11:27N 59°43' E 028°26'0 0.0
2018-Feb-10 10:57N 59°43' E 028°26'0 0.0
2018-Feb-10 10:27N 59°43' E 028°26'0 0.0
2018-Feb-10 09:57N 59°43' E 028°26'0 0.0
2018-Feb-10 09:27N 59°43' E 028°26'0 0.0
2018-Feb-10 08:57N 59°43' E 028°26'0 0.0
2018-Feb-10 08:27N 59°43' E 028°26'0 0.0
2018-Feb-10 08:00N 59°43' E 028°26'0 0.0
2018-Feb-10 07:30N 59°43' E 028°26'0 0.0
2018-Feb-10 07:00N 59°43' E 028°26'0 0.0
2018-Feb-10 06:30N 59°43' E 028°26'0 0.0
2018-Feb-10 06:00N 59°43' E 028°26'0 0.0
2018-Feb-10 05:30N 59°43' E 028°26'0 0.0
2018-Feb-10 05:00N 59°43' E 028°26'0 0.0
2018-Feb-10 04:30N 59°43' E 028°26'0 0.0
2018-Feb-10 04:00N 59°43' E 028°26'0 0.0
2018-Feb-10 03:30N 59°43' E 028°26'0 0.0
2018-Feb-10 03:00N 59°43' E 028°26'0 0.0
2018-Feb-10 02:30N 59°43' E 028°26'0 0.0
2018-Feb-10 02:00N 59°43' E 028°26'0 0.0
2018-Feb-10 01:30N 59°43' E 028°26'0 0.0
2018-Feb-10 01:00N 59°43' E 028°26'0 0.0
2018-Feb-10 00:30N 59°43' E 028°26'0 0.0
2018-Feb-10 00:00N 59°43' E 028°26'0 0.0
2018-Feb-09 23:30N 59°43' E 028°26'0 0.0
2018-Feb-09 23:00N 59°43' E 028°26'0 0.0
2018-Feb-09 22:45N 59°43' E 028°26'0 0.0
2018-Feb-09 10:30N 59°43' E 028°26'1 1.4
2018-Feb-09 10:01N 59°42' E 028°25'1 1.4
2018-Feb-09 09:30N 59°42' E 028°24'15 9.9
2018-Feb-09 08:00N 59°56' E 028°34'2 4.1
2018-Feb-09 07:30N 59°57' E 028°37'  

Dump ship's entire track history